Time;durP1;ratioP1;P1;durP2;ratioP2;P2;SDS_P1;SDS_P2;PMS_P1;PMS_P2;Temp;Humidity;BMP_temperature;BMP_pressure;BME280_temperature;BME280_humidity;BME280_pressure;Samples;Min_cycle;Max_cycle;Signal;HPM_P1;HPM_P2
2024/04/14 00:00:32;;;;;;;;;;;;;;;17.43;49.07;101960.53;5355463;26;19933;-85
2024/04/14 00:02:58;;;;;;;;;;;;;;;17.41;48.82;101963.25;5355718;26;20238;-86
2024/04/14 00:05:24;;;;;;;;;;;;;;;17.42;48.90;101970.16;5384865;26;20219;-85
2024/04/14 00:07:49;;;;;;;;;;;;;;;17.41;49.29;101967.66;5384853;26;19925;-85
2024/04/14 00:10:14;;;;;;;;;;;;;;;17.41;49.28;101967.66;5384740;26;20335;-85
2024/04/14 00:12:40;;;;;;;;;;;;;;;17.43;49.12;101965.78;5384883;26;20301;-86
2024/04/14 00:15:05;;;;;;;;;;;;;;;17.41;49.29;101965.88;5384210;26;19937;-85
2024/04/14 00:17:31;;;;;;;;;;;;;;;17.38;49.32;101968.63;5355494;26;19925;-85
2024/04/14 00:19:56;;;;;;;;;;;;;;;17.29;49.68;101973.53;5384450;26;20320;-86
2024/04/14 00:22:21;;;;;;;;;;;;;;;17.19;49.80;101963.59;5384323;26;19931;-85
2024/04/14 00:24:47;;;;;;;;;;;;;;;17.24;49.78;101962.50;5384525;26;19925;-85
2024/04/14 00:27:12;;;;;;;;;;;;;;;17.24;50.02;101960.72;5384427;26;20250;-85
2024/04/14 00:29:38;;;;;;;;;;;;;;;17.26;50.08;101964.09;5384241;26;19936;-85
2024/04/14 00:32:03;;;;;;;;;;;;;;;17.26;49.81;101964.09;5415710;26;19925;-85
2024/04/14 00:34:29;;;;;;;;;;;;;;;17.24;49.99;101958.13;5385867;26;19925;-85
2024/04/14 00:36:54;;;;;;;;;;;;;;;17.20;49.91;101961.81;5387958;26;19961;-85
2024/04/14 00:39:19;;;;;;;;;;;;;;;17.20;49.95;101974.88;5387966;26;19994;-85
2024/04/14 00:41:45;;;;;;;;;;;;;;;17.24;50.10;101973.81;5387971;26;19980;-85
2024/04/14 00:44:10;;;;;;;;;;;;;;;17.15;50.19;101975.16;5387517;26;19933;-85
2024/04/14 00:46:35;;;;;;;;;;;;;;;17.17;50.20;101970.69;5387910;26;19931;-86
2024/04/14 00:49:02;;;;;;;;;;;;;;;17.10;50.64;101974.56;5358454;26;19931;-85
2024/04/14 00:51:27;;;;;;;;;;;;;;;17.13;50.52;101974.41;5358900;26;20343;-85
2024/04/14 00:53:53;;;;;;;;;;;;;;;17.13;50.48;101978.78;5387739;26;19925;-85
2024/04/14 00:56:18;;;;;;;;;;;;;;;17.12;50.27;101977.09;5358379;26;20342;-85
2024/04/14 00:58:45;;;;;;;;;;;;;;;17.09;50.63;101977.25;5387458;26;20270;-85
2024/04/14 01:01:11;;;;;;;;;;;;;;;17.12;50.62;101977.09;5387651;26;19994;-85
2024/04/14 01:03:36;;;;;;;;;;;;;;;17.15;50.90;101974.31;5387987;26;19937;-85
2024/04/14 01:06:02;;;;;;;;;;;;;;;17.02;50.98;101971.53;5387798;26;19936;-85
2024/04/14 01:08:28;;;;;;;;;;;;;;;16.98;50.85;101974.38;5358491;26;19932;-86
2024/04/14 01:10:53;;;;;;;;;;;;;;;16.99;51.06;101970.84;5387524;26;19994;-86
2024/04/14 01:13:18;;;;;;;;;;;;;;;16.96;51.23;101965.78;5387093;26;19933;-85
2024/04/14 01:15:44;;;;;;;;;;;;;;;16.89;51.21;101966.13;5418751;26;20359;-85
2024/04/14 01:18:09;;;;;;;;;;;;;;;16.86;51.74;101968.91;5418731;26;19932;-85
2024/04/14 01:20:35;;;;;;;;;;;;;;;16.82;51.78;101963.94;5387133;26;19925;-85
2024/04/14 01:23:00;;;;;;;;;;;;;;;16.82;51.24;101972.63;5387090;26;19932;-85
2024/04/14 01:25:26;;;;;;;;;;;;;;;16.81;51.51;101970.06;5387374;26;19929;-85
2024/04/14 01:27:51;;;;;;;;;;;;;;;16.74;51.74;101971.34;5386980;26;19989;-85
2024/04/14 01:30:16;;;;;;;;;;;;;;;16.66;51.68;101968.25;5387323;26;19990;-85
2024/04/14 01:32:42;;;;;;;;;;;;;;;16.65;52.15;101972.63;5387526;26;19932;-85
2024/04/14 01:35:07;;;;;;;;;;;;;;;16.67;51.86;101973.41;5387332;26;19961;-85
2024/04/14 01:37:33;;;;;;;;;;;;;;;16.66;51.79;101974.31;5387300;26;19931;-85
2024/04/14 01:39:58;;;;;;;;;;;;;;;16.63;52.05;101958.81;5358081;26;19932;-85
2024/04/14 01:42:23;;;;;;;;;;;;;;;16.68;51.70;101958.56;5357599;26;19935;-85
2024/04/14 01:44:49;;;;;;;;;;;;;;;16.72;51.95;101963.59;5357877;26;20312;-85
2024/04/14 01:47:14;;;;;;;;;;;;;;;16.71;51.77;101956.66;5385821;26;19925;-85
2024/04/14 01:49:39;;;;;;;;;;;;;;;16.71;51.55;101955.81;5387054;26;19924;-86
2024/04/14 01:52:05;;;;;;;;;;;;;;;16.71;51.91;101966.25;5387010;26;19924;-85
2024/04/14 01:54:30;;;;;;;;;;;;;;;16.73;51.52;101954.81;5387128;26;19925;-85
2024/04/14 01:56:55;;;;;;;;;;;;;;;16.75;51.50;101957.34;5386363;26;19925;-85
2024/04/14 01:59:21;;;;;;;;;;;;;;;16.75;51.68;101957.34;5357639;26;19925;-86
2024/04/14 02:01:46;;;;;;;;;;;;;;;16.77;51.73;101960.72;5418329;26;19937;-85
2024/04/14 02:04:12;;;;;;;;;;;;;;;16.80;51.28;101957.94;5418394;26;20059;-85
2024/04/14 02:06:37;;;;;;;;;;;;;;;16.74;52.00;101961.72;5357568;26;20327;-85
2024/04/14 02:09:02;;;;;;;;;;;;;;;16.70;52.01;101965.41;5386549;26;20244;-85
2024/04/14 02:11:29;;;;;;;;;;;;;;;16.74;52.23;101958.28;5386354;26;19989;-85
2024/04/14 02:13:54;;;;;;;;;;;;;;;16.69;52.15;101957.66;5387081;26;19925;-85
2024/04/14 02:16:19;;;;;;;;;;;;;;;16.62;52.43;101968.44;5386548;26;19936;-85
2024/04/14 02:18:45;;;;;;;;;;;;;;;16.60;52.22;101958.97;5386717;26;19967;-85
2024/04/14 02:21:10;;;;;;;;;;;;;;;16.56;52.07;101962.66;5386267;26;20371;-85
2024/04/14 02:23:37;;;;;;;;;;;;;;;16.37;53.08;101967.16;5357255;26;19925;-85
2024/04/14 02:26:02;;;;;;;;;;;;;;;16.30;53.36;101964.03;5417446;26;19925;-85
2024/04/14 02:28:28;;;;;;;;;;;;;;;16.28;53.46;101964.09;5418029;26;19971;-85
2024/04/14 02:30:53;;;;;;;;;;;;;;;16.21;53.76;101973.16;5386718;26;20551;-85
2024/04/14 02:33:18;;;;;;;;;;;;;;;16.18;54.21;101977.72;5386521;26;19994;-86
2024/04/14 02:35:53;;;;;;;;;;;;;;;16.26;53.91;101976.41;5386309;26;19925;-86
2024/04/14 02:38:19;;;;;;;;;;;;;;;16.19;53.81;101976.78;5357161;26;20309;-85
2024/04/14 02:40:53;;;;;;;;;;;;;;;16.11;54.36;101978.94;5386024;26;19925;-85
2024/04/14 02:43:19;;;;;;;;;;;;;;;15.92;54.89;101986.84;5417429;26;19961;-85
2024/04/14 02:45:44;;;;;;;;;;;;;;;15.91;55.37;101979.94;5385917;26;19936;-85
2024/04/14 02:48:09;;;;;;;;;;;;;;;15.91;55.81;101980.78;5385896;26;19931;-85
2024/04/14 02:50:35;;;;;;;;;;;;;;;15.91;55.76;101977.31;5385875;26;19925;-85
2024/04/14 02:53:00;;;;;;;;;;;;;;;15.89;55.98;101977.41;5385805;26;19924;-85
2024/04/14 02:55:25;;;;;;;;;;;;;;;15.88;55.58;101974.88;5385451;26;19925;-85
2024/04/14 02:57:51;;;;;;;;;;;;;;;15.81;55.69;101973.47;5385526;26;19933;-85
2024/04/14 03:00:16;;;;;;;;;;;;;;;15.77;56.04;101975.41;5417061;26;19925;-85
2024/04/14 03:02:41;;;;;;;;;;;;;;;15.76;55.85;101969.34;5385857;26;19925;-85
2024/04/14 03:05:07;;;;;;;;;;;;;;;15.77;56.26;101970.19;5385521;26;19925;-85
2024/04/14 03:07:32;;;;;;;;;;;;;;;15.80;55.77;101971.78;5385742;26;20346;-85
2024/04/14 03:09:57;;;;;;;;;;;;;;;15.68;56.21;101971.47;5385190;26;19990;-85
2024/04/14 03:12:23;;;;;;;;;;;;;;;15.63;57.12;101970.88;5385550;26;19925;-85
2024/04/14 03:14:48;;;;;;;;;;;;;;;15.64;57.23;101977.78;5385477;26;19924;-85
2024/04/14 03:17:13;;;;;;;;;;;;;;;15.70;56.94;101977.47;5356117;26;19932;-85
2024/04/14 03:19:39;;;;;;;;;;;;;;;15.72;55.74;101980.84;5385516;26;19925;-85
2024/04/14 03:22:04;;;;;;;;;;;;;;;15.65;55.89;101983.84;5385314;26;19932;-85
2024/04/14 03:24:31;;;;;;;;;;;;;;;15.60;56.06;101978.84;5385243;26;19952;-85
2024/04/14 03:26:58;;;;;;;;;;;;;;;15.53;56.50;101976.56;5385509;26;19925;-85
2024/04/14 03:29:23;;;;;;;;;;;;;;;15.55;56.62;101978.19;5386172;26;19933;-85
2024/04/14 03:31:48;;;;;;;;;;;;;;;15.55;56.80;101983.41;5356406;26;19925;-85
2024/04/14 03:34:14;;;;;;;;;;;;;;;15.63;56.33;101983.94;5385558;26;19924;-86
2024/04/14 03:36:39;;;;;;;;;;;;;;;15.61;56.76;101983.13;5356199;26;19925;-86
2024/04/14 03:39:05;;;;;;;;;;;;;;;15.58;56.30;101975.44;5385070;26;20228;-85
2024/04/14 03:41:30;;;;;;;;;;;;;;;15.54;56.34;101984.34;5385443;26;19925;-85
2024/04/14 03:43:55;;;;;;;;;;;;;;;15.59;56.66;101978.88;5385199;26;19924;-85
2024/04/14 03:46:20;;;;;;;;;;;;;;;15.56;56.37;101979.88;5385015;26;19932;-85
2024/04/14 03:48:46;;;;;;;;;;;;;;;15.50;56.66;101972.34;5384801;26;20019;-85
2024/04/14 03:51:11;;;;;;;;;;;;;;;15.44;56.66;101976.09;5384913;26;19994;-85
2024/04/14 03:53:37;;;;;;;;;;;;;;;15.45;56.96;101980.41;5415846;26;20243;-85
2024/04/14 03:56:02;;;;;;;;;;;;;;;15.45;56.68;101979.56;5384958;26;19924;-85
2024/04/14 03:58:27;;;;;;;;;;;;;;;15.40;56.39;101979.75;5416171;26;20335;-85
2024/04/14 04:00:53;;;;;;;;;;;;;;;15.30;57.16;101983.72;5355471;26;20369;-85
2024/04/14 04:03:18;;;;;;;;;;;;;;;15.30;57.43;101975.91;5384935;26;20238;-85
2024/04/14 04:05:56;;;;;;;;;;;;;;;15.26;57.88;101976.13;5355473;26;19925;-85
2024/04/14 04:08:22;;;;;;;;;;;;;;;15.33;57.96;101978.34;5384660;26;20098;-85
2024/04/14 04:10:56;;;;;;;;;;;;;;;15.35;57.90;101975.69;5387931;26;19936;-85
2024/04/14 04:13:21;;;;;;;;;;;;;;;15.30;58.22;101977.66;5388139;26;19932;-85
2024/04/14 04:15:53;;;;;;;;;;;;;;;15.24;58.14;101984.03;5388096;26;19925;-85
2024/04/14 04:18:18;;;;;;;;;;;;;;;15.34;57.82;101977.47;5417519;26;19929;-85
2024/04/14 04:20:51;;;;;;;;;;;;;;;15.38;57.81;101975.53;5387593;26;19993;-85
2024/04/14 04:23:17;;;;;;;;;;;;;;;15.38;58.49;101981.59;5387814;26;19925;-85
2024/04/14 04:25:42;;;;;;;;;;;;;;;15.44;58.34;101990.91;5387859;26;19925;-86
2024/04/14 04:28:07;;;;;;;;;;;;;;;15.36;59.35;101988.66;5388050;26;19937;-85
2024/04/14 04:30:33;;;;;;;;;;;;;;;15.39;59.06;101996.31;5387906;26;20371;-85
2024/04/14 04:32:58;;;;;;;;;;;;;;;15.36;59.04;101996.47;5387624;26;19925;-84
2024/04/14 04:35:23;;;;;;;;;;;;;;;15.36;59.23;101993.03;5387866;26;19932;-85
2024/04/14 04:37:49;;;;;;;;;;;;;;;15.36;59.71;101993.03;5419114;26;19990;-85
2024/04/14 04:40:14;;;;;;;;;;;;;;;15.42;59.91;101995.31;5387804;26;19994;-85
2024/04/14 04:42:39;;;;;;;;;;;;;;;15.46;60.20;101989.91;5387653;26;19932;-85
2024/04/14 04:45:05;;;;;;;;;;;;;;;15.49;60.87;101994.97;5358349;26;19925;-85
2024/04/14 04:47:30;;;;;;;;;;;;;;;15.51;60.42;101992.28;5387651;26;19925;-85
2024/04/14 04:49:56;;;;;;;;;;;;;;;15.54;60.41;101997.38;5387281;26;19925;-85
2024/04/14 04:52:21;;;;;;;;;;;;;;;15.62;60.17;101995.25;5387552;26;19929;-85
2024/04/14 04:54:47;;;;;;;;;;;;;;;15.71;59.54;101999.19;5418868;26;19925;-85
2024/04/14 04:57:12;;;;;;;;;;;;;;;15.79;59.84;101997.06;5387303;26;20350;-85
2024/04/14 04:59:37;;;;;;;;;;;;;;;15.87;58.65;101999.28;5387476;26;19944;-85
2024/04/14 05:02:03;;;;;;;;;;;;;;;15.90;59.21;102004.34;5387508;26;19925;-85
2024/04/14 05:04:28;;;;;;;;;;;;;;;15.93;58.34;102002.44;5387000;26;20342;-85
2024/04/14 05:06:53;;;;;;;;;;;;;;;15.94;58.36;102005.91;5358007;26;19994;-86
2024/04/14 05:09:19;;;;;;;;;;;;;;;16.01;58.41;102012.50;5358186;26;19963;-85
2024/04/14 05:11:44;;;;;;;;;;;;;;;16.14;58.22;102012.75;5387063;26;19925;-86
2024/04/14 05:14:10;;;;;;;;;;;;;;;16.24;57.43;102009.59;5387385;26;19991;-85
2024/04/14 05:16:35;;;;;;;;;;;;;;;16.32;57.27;102007.44;5387063;26;19925;-86
2024/04/14 05:19:00;;;;;;;;;;;;;;;16.35;57.77;102015.09;5386846;26;20367;-85
2024/04/14 05:21:26;;;;;;;;;;;;;;;16.34;57.71;102013.41;5357724;26;20363;-86
2024/04/14 05:23:51;;;;;;;;;;;;;;;16.37;57.94;102003.72;5386781;26;19932;-86
2024/04/14 05:26:16;;;;;;;;;;;;;;;16.43;58.01;102008.66;5418474;26;20338;-86
2024/04/14 05:28:42;;;;;;;;;;;;;;;16.46;57.55;102005.88;5357704;26;19937;-85
2024/04/14 05:31:07;;;;;;;;;;;;;;;16.48;57.50;101998.78;5357628;26;19935;-85
2024/04/14 05:33:32;;;;;;;;;;;;;;;16.55;57.59;102002.78;5386649;26;19925;-86
2024/04/14 05:35:58;;;;;;;;;;;;;;;16.66;57.58;101999.59;5418281;26;19925;-85
2024/04/14 05:38:23;;;;;;;;;;;;;;;16.74;57.77;102003.53;5386899;26;19929;-85
2024/04/14 05:40:49;;;;;;;;;;;;;;;16.82;57.91;102001.38;5387044;26;19925;-85
2024/04/14 05:43:14;;;;;;;;;;;;;;;17.03;55.12;102003.75;5386735;26;19925;-86
2024/04/14 05:45:39;;;;;;;;;;;;;;;17.21;53.97;102010.59;5386783;26;19936;-85
2024/04/14 05:48:05;;;;;;;;;;;;;;;17.34;54.81;102003.75;5386457;26;20058;-86
2024/04/14 05:50:30;;;;;;;;;;;;;;;17.42;54.42;102004.19;5386807;26;19936;-86
2024/04/14 05:52:56;;;;;;;;;;;;;;;17.48;54.55;102001.19;5386612;26;19925;-85
2024/04/14 05:55:21;;;;;;;;;;;;;;;17.70;52.97;102005.28;5386515;26;19932;-86
2024/04/14 05:57:46;;;;;;;;;;;;;;;17.69;53.70;101998.31;5417857;26;20347;-85
2024/04/14 06:00:12;;;;;;;;;;;;;;;17.74;53.51;102001.53;5357208;26;19925;-86
2024/04/14 06:02:37;;;;;;;;;;;;;;;17.73;54.68;101994.63;5386321;26;19967;-86
2024/04/14 06:05:03;;;;;;;;;;;;;;;17.71;55.48;101999.97;5417835;26;19925;-86
2024/04/14 06:07:29;;;;;;;;;;;;;;;17.71;55.90;101999.13;5387024;26;19957;-86
2024/04/14 06:09:55;;;;;;;;;;;;;;;17.71;56.08;101996.50;5386382;26;19932;-86
2024/04/14 06:12:20;;;;;;;;;;;;;;;17.75;55.89;101998.00;5386491;26;19925;-86
2024/04/14 06:14:45;;;;;;;;;;;;;;;17.81;55.81;101997.66;5386465;26;19925;-85
2024/04/14 06:17:11;;;;;;;;;;;;;;;17.89;55.25;101995.41;5385199;26;19932;-86
2024/04/14 06:19:36;;;;;;;;;;;;;;;17.97;54.75;101994.97;5417636;26;19925;-86
2024/04/14 06:22:02;;;;;;;;;;;;;;;18.05;55.03;102000.59;5386266;26;19925;-86
2024/04/14 06:24:27;;;;;;;;;;;;;;;18.17;54.95;101993.81;5386573;26;20925;-86
2024/04/14 06:26:53;;;;;;;;;;;;;;;18.28;54.80;101991.38;5417767;26;20350;-85
2024/04/14 06:29:18;;;;;;;;;;;;;;;18.39;54.80;101989.00;5386566;26;19948;-86
2024/04/14 06:31:45;;;;;;;;;;;;;;;18.52;54.40;101986.47;5416513;26;19925;-86
2024/04/14 06:34:10;;;;;;;;;;;;;;;18.81;54.21;101985.56;5386869;26;19924;-85
2024/04/14 06:36:35;;;;;;;;;;;;;;;18.93;53.35;101978.69;5356845;26;19939;-85
2024/04/14 06:39:01;;;;;;;;;;;;;;;19.10;53.31;101986.34;5386344;26;19932;-86
2024/04/14 06:41:26;;;;;;;;;;;;;;;19.20;52.25;101982.22;5417652;26;19925;-86
2024/04/14 06:43:51;;;;;;;;;;;;;;;19.26;51.66;101983.56;5386403;26;20342;-86
2024/04/14 06:46:17;;;;;;;;;;;;;;;19.41;51.43;101977.34;5385923;26;19944;-85
2024/04/14 06:48:42;;;;;;;;;;;;;;;19.71;51.94;101982.41;5417598;26;19948;-85
2024/04/14 06:51:07;;;;;;;;;;;;;;;19.88;52.16;101985.72;5386237;26;19925;-86
2024/04/14 06:53:33;;;;;;;;;;;;;;;20.08;51.91;101982.59;5356910;26;19937;-85
2024/04/14 06:56:01;;;;;;;;;;;;;;;20.30;49.72;101982.81;5417150;26;20262;-85
2024/04/14 06:58:28;;;;;;;;;;;;;;;20.46;50.25;101973.94;5357409;26;19949;-85
2024/04/14 07:00:53;;;;;;;;;;;;;;;20.70;48.84;101971.34;5385443;26;19924;-86
2024/04/14 07:03:19;;;;;;;;;;;;;;;20.90;48.18;101971.63;5385956;26;19998;-86
2024/04/14 07:05:44;;;;;;;;;;;;;;;21.13;49.70;101969.97;5356675;26;20350;-86
2024/04/14 07:08:09;;;;;;;;;;;;;;;21.29;47.49;101969.75;5356553;26;19925;-86
2024/04/14 07:10:35;;;;;;;;;;;;;;;21.45;47.92;101972.94;5416864;26;19948;-86
2024/04/14 07:13:01;;;;;;;;;;;;;;;21.62;46.27;101979.56;5416703;26;19993;-85
2024/04/14 07:15:26;;;;;;;;;;;;;;;21.73;46.37;101984.06;5385330;26;19932;-85
2024/04/14 07:17:51;;;;;;;;;;;;;;;21.88;45.24;101982.91;5385456;26;19933;-86
2024/04/14 07:20:17;;;;;;;;;;;;;;;22.04;44.31;101979.97;5356296;26;19925;-86
2024/04/14 07:22:44;;;;;;;;;;;;;;;22.24;44.85;101978.47;5385444;26;19994;-85
2024/04/14 07:25:10;;;;;;;;;;;;;;;22.41;44.57;101985.06;5385668;26;19936;-85
2024/04/14 07:27:36;;;;;;;;;;;;;;;22.57;43.37;101973.22;5386272;26;19931;-85
2024/04/14 07:30:01;;;;;;;;;;;;;;;22.79;43.83;101982.91;5385211;26;19932;-86
2024/04/14 07:32:26;;;;;;;;;;;;;;;22.94;42.17;101978.25;5356465;26;19932;-86
2024/04/14 07:34:52;;;;;;;;;;;;;;;23.10;41.16;101983.13;5385495;26;19925;-85
2024/04/14 07:37:17;;;;;;;;;;;;;;;23.22;41.18;101976.03;5385044;26;20350;-86
2024/04/14 07:39:42;;;;;;;;;;;;;;;23.40;40.58;101977.16;5385573;26;19925;-86
2024/04/14 07:42:08;;;;;;;;;;;;;;;23.54;39.65;101976.88;5385493;26;19937;-86
2024/04/14 07:44:33;;;;;;;;;;;;;;;23.70;39.16;101982.59;5386186;26;19925;-86
2024/04/14 07:46:59;;;;;;;;;;;;;;;23.85;40.12;101980.47;5388736;26;19932;-85
2024/04/14 07:49:24;;;;;;;;;;;;;;;23.97;39.61;101983.88;5388669;26;19931;-86
2024/04/14 07:51:49;;;;;;;;;;;;;;;24.14;40.21;101977.19;5359344;26;19933;-85
2024/04/14 07:54:15;;;;;;;;;;;;;;;24.28;39.30;101980.31;5419441;26;20378;-86
2024/04/14 07:56:40;;;;;;;;;;;;;;;24.44;38.20;101973.75;5387819;26;19932;-86
2024/04/14 07:59:05;;;;;;;;;;;;;;;24.52;38.30;101979.22;5387842;26;19932;-86
2024/04/14 08:01:31;;;;;;;;;;;;;;;24.65;38.40;101971.88;5388114;26;19925;-86
2024/04/14 08:03:56;;;;;;;;;;;;;;;24.80;38.25;101973.19;5419676;26;19925;-86
2024/04/14 08:06:22;;;;;;;;;;;;;;;24.92;37.50;101973.06;5388345;26;19925;-86
2024/04/14 08:08:47;;;;;;;;;;;;;;;24.88;36.90;101962.78;5388203;26;20063;-86
2024/04/14 08:11:13;;;;;;;;;;;;;;;25.06;36.70;101970.06;5358701;26;19994;-85
2024/04/14 08:13:38;;;;;;;;;;;;;;;24.94;36.68;101958.72;5419081;26;20279;-86
2024/04/14 08:16:03;;;;;;;;;;;;;;;25.18;36.52;101969.00;5358818;26;19936;-86
2024/04/14 08:18:29;;;;;;;;;;;;;;;25.28;35.64;101972.47;5387990;26;19924;-86
2024/04/14 08:21:01;;;;;;;;;;;;;;;25.26;35.09;101969.09;5387861;26;19994;-86
2024/04/14 08:23:26;;;;;;;;;;;;;;;25.41;34.71;101969.56;5388168;26;20374;-86
2024/04/14 08:25:51;;;;;;;;;;;;;;;25.46;33.58;101968.13;5388529;26;19931;-85
2024/04/14 08:28:17;;;;;;;;;;;;;;;25.58;33.12;101965.38;5419269;26;20342;-86
2024/04/14 08:30:42;;;;;;;;;;;;;;;25.72;33.90;101967.63;5388296;26;20358;-87
2024/04/14 08:33:08;;;;;;;;;;;;;;;25.80;33.57;101972.22;5387962;26;20328;-86
2024/04/14 08:35:34;;;;;;;;;;;;;;;25.94;32.67;101969.94;5388119;26;20354;-86
2024/04/14 08:37:59;;;;;;;;;;;;;;;26.05;32.10;101970.75;5419492;26;19933;-86
2024/04/14 08:40:24;;;;;;;;;;;;;;;26.07;31.99;101968.81;5388119;26;20365;-86
2024/04/14 08:42:51;;;;;;;;;;;;;;;26.21;30.81;101971.00;5387427;26;19925;-86
2024/04/14 08:45:16;;;;;;;;;;;;;;;26.20;31.50;101969.31;5387908;26;19925;-86
2024/04/14 08:47:42;;;;;;;;;;;;;;;26.21;30.72;101973.66;5388301;26;20011;-86
2024/04/14 08:50:07;;;;;;;;;;;;;;;26.12;30.82;101971.84;5358467;26;19933;-86
2024/04/14 08:52:33;;;;;;;;;;;;;;;26.17;31.38;101970.47;5387799;26;19924;-86
2024/04/14 08:54:58;;;;;;;;;;;;;;;26.23;31.75;101971.69;5418653;26;19932;-87
2024/04/14 08:57:26;;;;;;;;;;;;;;;26.39;31.15;101964.00;5358065;26;19925;-86
2024/04/14 08:59:51;;;;;;;;;;;;;;;26.43;31.36;101962.69;5419186;26;20379;-86
2024/04/14 09:02:17;;;;;;;;;;;;;;;26.52;32.77;101953.88;5387904;26;19925;-86
2024/04/14 09:04:43;;;;;;;;;;;;;;;26.16;31.66;101957.34;5387635;26;19957;-86
2024/04/14 09:07:09;;;;;;;;;;;;;;;26.48;30.58;101947.19;5387752;26;19932;-86
2024/04/14 09:09:35;;;;;;;;;;;;;;;26.65;29.86;101947.41;5388023;26;19957;-87
2024/04/14 09:12:00;;;;;;;;;;;;;;;26.79;30.66;101934.44;5387309;26;19925;-86
2024/04/14 09:14:26;;;;;;;;;;;;;;;26.92;29.67;101936.72;5387583;26;19933;-86
2024/04/14 09:16:51;;;;;;;;;;;;;;;26.98;30.20;101938.78;5387412;26;19974;-85
2024/04/14 09:19:19;;;;;;;;;;;;;;;27.10;30.41;101934.97;5387369;26;19925;-86
2024/04/14 09:21:45;;;;;;;;;;;;;;;27.26;30.22;101926.31;5388093;26;19925;-85
2024/04/14 09:24:10;;;;;;;;;;;;;;;27.32;30.32;101927.50;5386987;26;19932;-85
2024/04/14 09:26:35;;;;;;;;;;;;;;;27.27;30.16;101929.81;5417798;26;19989;-86
2024/04/14 09:29:10;;;;;;;;;;;;;;;27.18;30.72;101925.41;5418288;26;20028;-84
2024/04/14 09:31:35;;;;;;;;;;;;;;;27.13;29.87;101921.38;5418395;26;20355;-86
2024/04/14 09:34:04;;;;;;;;;;;;;;;27.30;30.50;101917.03;5387103;26;19931;-86
2024/04/14 09:36:29;;;;;;;;;;;;;;;27.29;30.34;101914.53;5386909;26;19925;-86
2024/04/14 09:38:55;;;;;;;;;;;;;;;27.49;29.40;101905.41;5386941;26;19932;-86
2024/04/14 09:41:20;;;;;;;;;;;;;;;27.59;30.78;101900.81;5417967;26;19933;-86
2024/04/14 09:43:45;;;;;;;;;;;;;;;27.56;29.10;101906.47;5418284;26;19933;-86
2024/04/14 09:46:11;;;;;;;;;;;;;;;27.62;28.78;101905.81;5386881;26;20246;-86
2024/04/14 09:48:36;;;;;;;;;;;;;;;27.32;29.18;101904.44;5386723;26;19925;-86
2024/04/14 09:51:01;;;;;;;;;;;;;;;27.32;29.95;101900.94;5357478;26;19941;-86
2024/04/14 09:53:31;;;;;;;;;;;;;;;27.47;29.87;101890.59;5386788;26;19933;-87
2024/04/14 09:55:57;;;;;;;;;;;;;;;27.63;29.45;101896.88;5358253;26;19925;-86
2024/04/14 09:58:22;;;;;;;;;;;;;;;27.62;30.32;101889.88;5357420;26;19932;-86
2024/04/14 10:00:48;;;;;;;;;;;;;;;27.56;30.05;101885.19;5357335;26;19937;-86
2024/04/14 10:03:13;;;;;;;;;;;;;;;27.65;30.09;101883.44;5417753;26;19932;-86
2024/04/14 10:05:39;;;;;;;;;;;;;;;27.83;30.27;101881.59;5386911;26;19975;-86
2024/04/14 10:08:04;;;;;;;;;;;;;;;28.08;29.67;101868.41;5416779;26;19925;-87
2024/04/14 10:10:29;;;;;;;;;;;;;;;28.10;29.42;101874.38;5417544;26;19925;-86
2024/04/14 10:12:55;;;;;;;;;;;;;;;28.06;28.56;101868.56;5386421;26;19936;-86
2024/04/14 10:15:23;;;;;;;;;;;;;;;28.03;29.39;101868.91;5418020;26;19967;-86
2024/04/14 10:17:49;;;;;;;;;;;;;;;28.25;29.01;101867.47;5417733;26;19925;-86
2024/04/14 10:20:15;;;;;;;;;;;;;;;28.30;28.55;101862.53;5386346;26;20431;-86
2024/04/14 10:22:41;;;;;;;;;;;;;;;28.28;29.26;101865.34;5386549;26;19974;-86
2024/04/14 10:25:19;;;;;;;;;;;;;;;28.40;29.07;101862.38;5386137;26;20008;-86
2024/04/14 10:27:45;;;;;;;;;;;;;;;28.57;29.05;101856.13;5386739;26;19937;-86
2024/04/14 10:30:17;;;;;;;;;;;;;;;28.76;29.18;101852.34;5386672;26;19932;-87
2024/04/14 10:32:42;;;;;;;;;;;;;;;28.58;28.29;101845.31;5357300;26;20375;-86
2024/04/14 10:35:14;;;;;;;;;;;;;;;28.57;28.28;101850.78;5356880;26;19932;-86
2024/04/14 10:37:39;;;;;;;;;;;;;;;28.67;28.70;101838.16;5385793;26;19924;-87
2024/04/14 10:40:05;;;;;;;;;;;;;;;28.81;28.43;101840.19;5386534;26;20416;-86
2024/04/14 10:42:30;;;;;;;;;;;;;;;28.85;29.03;101832.69;5386340;26;20347;-86
2024/04/14 10:44:56;;;;;;;;;;;;;;;29.05;28.78;101826.06;5386131;26;20015;-86
2024/04/14 10:47:21;;;;;;;;;;;;;;;28.78;28.23;101827.19;5386295;26;19925;-87
2024/04/14 10:49:47;;;;;;;;;;;;;;;28.69;27.83;101830.84;5386396;26;19931;-86
2024/04/14 10:52:12;;;;;;;;;;;;;;;28.58;28.44;101823.19;5386071;26;19925;-87
2024/04/14 10:54:39;;;;;;;;;;;;;;;28.55;28.49;101819.03;5386397;26;19925;-86
2024/04/14 10:57:04;;;;;;;;;;;;;;;28.28;29.35;101814.78;5356696;26;19932;-87
2024/04/14 10:59:29;;;;;;;;;;;;;;;28.57;29.22;101808.19;5356621;26;19925;-86
2024/04/14 11:01:55;;;;;;;;;;;;;;;28.61;29.20;101809.53;5385802;26;20320;-86
2024/04/14 11:04:20;;;;;;;;;;;;;;;28.82;28.12;101807.25;5385709;26;19932;-87
2024/04/14 11:06:45;;;;;;;;;;;;;;;29.04;27.36;101807.59;5385279;26;20419;-86
2024/04/14 11:09:11;;;;;;;;;;;;;;;29.28;27.90;101796.91;5385517;26;20236;-86
2024/04/14 11:11:36;;;;;;;;;;;;;;;29.32;28.22;101795.56;5385503;26;19929;-87
2024/04/14 11:14:02;;;;;;;;;;;;;;;29.26;26.38;101788.25;5385781;26;19929;-84
2024/04/14 11:16:27;;;;;;;;;;;;;;;29.51;26.44;101780.25;5385618;26;19932;-85
2024/04/14 11:18:52;;;;;;;;;;;;;;;29.50;26.62;101786.53;5356116;26;20242;-85
2024/04/14 11:21:23;;;;;;;;;;;;;;;29.31;27.40;101775.25;5384778;26;19925;-84
2024/04/14 11:23:49;;;;;;;;;;;;;;;29.30;26.80;101781.59;5385278;26;19929;-84
2024/04/14 11:26:14;;;;;;;;;;;;;;;29.51;27.81;101772.25;5385721;26;20242;-84
2024/04/14 11:28:39;;;;;;;;;;;;;;;29.54;26.48;101769.22;5385715;26;19925;-84
2024/04/14 11:31:05;;;;;;;;;;;;;;;29.35;26.61;101763.25;5385600;26;19925;-85
2024/04/14 11:33:30;;;;;;;;;;;;;;;29.21;26.60;101755.13;5385793;26;19939;-84
2024/04/14 11:35:56;;;;;;;;;;;;;;;29.45;26.34;101751.56;5385340;26;20232;-84
2024/04/14 11:38:21;;;;;;;;;;;;;;;29.57;27.33;101748.38;5385530;26;19932;-85
2024/04/14 11:40:47;;;;;;;;;;;;;;;29.53;26.51;101749.72;5356310;26;19925;-84
2024/04/14 11:43:12;;;;;;;;;;;;;;;29.06;27.08;101752.31;5356129;26;19988;-85
2024/04/14 11:45:46;;;;;;;;;;;;;;;29.33;27.32;101743.94;5385638;26;19925;-84
2024/04/14 11:48:11;;;;;;;;;;;;;;;29.46;26.75;101738.06;5385445;26;19925;-84
2024/04/14 11:50:36;;;;;;;;;;;;;;;29.51;26.17;101732.25;5416196;26;19925;-84
2024/04/14 11:53:02;;;;;;;;;;;;;;;29.78;26.68;101714.94;5385151;26;19994;-84
2024/04/14 11:55:27;;;;;;;;;;;;;;;29.51;25.50;101724.25;5385270;26;19925;-84
2024/04/14 11:57:52;;;;;;;;;;;;;;;29.43;25.69;101722.41;5385046;26;20286;-85
2024/04/14 12:00:18;;;;;;;;;;;;;;;29.65;25.97;101710.19;5355538;26;19935;-85
2024/04/14 12:02:43;;;;;;;;;;;;;;;29.75;25.90;101710.78;5384769;26;19932;-84
2024/04/14 12:05:08;;;;;;;;;;;;;;;29.93;25.55;101703.38;5384226;26;20232;-84
2024/04/14 12:07:34;;;;;;;;;;;;;;;29.97;25.68;101702.00;5384822;26;19925;-84
2024/04/14 12:09:59;;;;;;;;;;;;;;;29.99;25.73;101702.69;5416059;26;19993;-85
2024/04/14 12:12:24;;;;;;;;;;;;;;;29.86;25.50;101702.41;5384603;26;19994;-85
2024/04/14 12:14:50;;;;;;;;;;;;;;;29.86;25.64;101696.22;5384604;26;19936;-85
2024/04/14 12:17:15;;;;;;;;;;;;;;;30.03;25.80;101691.63;5384437;26;19931;-84
2024/04/14 12:19:41;;;;;;;;;;;;;;;30.22;25.63;101688.53;5384540;26;19932;-84
2024/04/14 12:22:06;;;;;;;;;;;;;;;30.49;25.22;101679.97;5384432;26;19925;-84
2024/04/14 12:24:32;;;;;;;;;;;;;;;30.69;24.95;101671.50;5415777;26;20419;-85
2024/04/14 12:26:57;;;;;;;;;;;;;;;30.82;24.61;101661.00;5384383;26;19925;-84